Flight Briefing for CPX238

Departure Arrival
Luis Munoz Marin International Airport (TJSJ)
Click to view FAA NOTAMS
Miami International Airport (KMIA)
Click to view FAA NOTAMS
Departure Time Arrival Time
N/A N/A
Aircraft Distance
B767-300BDSF 909nm
Departure METAR Arrival METAR
TJSJ 192156Z 09013KT 10SM FEW029 SCT055 SCT080 26/21 A3008 RMK AO2 SLP184 T02560206 KMIA 192153Z 11013KT 10SM BKN030 27/20 A3013 RMK AO2 SLP201 T02670200
Suggested Route
ACONY3 PALDE FEKKO Y308 FOWEE FLIPR6


View recent IFR Routes data
Notes



Charts and Procedures

Charts for TJSJ
No chart available
Charts for KMIA
No chart available

Ventusky Weather




{"cat":null,"equip":null,"transponder":null,"pbn":"PBN\/","maxpax":null,"oew":"0.0","mzfw":"0.0","mtow":"0.0","mlw":"0.0","maxfuel":"0.0"} DEVELOPMENTAL TEST USE ONLY